Time;durP1;ratioP1;P1;durP2;ratioP2;P2;SDS_P1;SDS_P2;PMS_P1;PMS_P2;Temp;Humidity;BMP_temperature;BMP_pressure;BME280_temperature;BME280_humidity;BME280_pressure;Samples;Min_cycle;Max_cycle;Signal;HPM_P1;HPM_P2
2021/10/21 00:00:02;;;;;;;11.60;2.97;;;;;;;9.91;72.00;97232.09;5064083;28;20058;-69
2021/10/21 00:02:27;;;;;;;12.40;2.58;;;;;;;9.75;71.86;97232.41;5062762;28;20055;-69
2021/10/21 00:04:53;;;;;;;14.52;2.88;;;;;;;9.55;72.91;97222.03;5061799;28;20033;-69
2021/10/21 00:07:18;;;;;;;12.23;2.80;;;;;;;9.60;72.82;97227.31;5062070;28;20039;-68
2021/10/21 00:09:44;;;;;;;14.65;2.72;;;;;;;9.74;72.66;97228.13;5062290;28;20075;-68
2021/10/21 00:12:11;;;;;;;13.30;2.65;;;;;;;9.75;71.59;97227.03;5062279;28;20113;-67
2021/10/21 00:14:37;;;;;;;18.95;3.20;;;;;;;9.65;71.98;97219.16;5066118;28;20059;-68
2021/10/21 00:17:02;;;;;;;17.60;2.97;;;;;;;9.75;72.59;97224.34;5062241;28;20112;-68
2021/10/21 00:19:28;;;;;;;8.52;2.60;;;;;;;9.88;71.94;97222.75;5064076;28;20044;-67
2021/10/21 00:21:55;;;;;;;10.50;2.55;;;;;;;9.75;72.14;97231.63;5060877;28;20126;-67
2021/10/21 00:24:20;;;;;;;13.27;2.60;;;;;;;9.67;72.19;97243.84;5074961;28;20051;-68
2021/10/21 00:26:47;;;;;;;21.35;2.90;;;;;;;9.67;71.83;97222.34;5064403;28;20037;-68
2021/10/21 00:29:13;;;;;;;16.88;2.90;;;;;;;9.64;71.85;97228.31;5066402;28;20377;-68
2021/10/21 00:31:39;;;;;;;12.82;2.75;;;;;;;9.67;71.66;97235.78;5063571;28;20486;-68
2021/10/21 00:34:05;;;;;;;12.35;2.22;;;;;;;9.75;70.87;97237.00;5055070;28;20029;-68
2021/10/21 00:36:31;;;;;;;11.75;2.30;;;;;;;9.76;70.76;97225.16;5057897;28;20417;-68
2021/10/21 00:38:57;;;;;;;9.82;2.20;;;;;;;9.69;71.75;97233.59;5064203;28;20033;-68
2021/10/21 00:41:23;;;;;;;11.60;2.40;;;;;;;9.70;70.70;97232.50;5054817;28;20037;-68
2021/10/21 00:43:48;;;;;;;11.27;2.10;;;;;;;9.79;71.07;97233.41;5060005;28;20036;-68
2021/10/21 00:46:17;;;;;;;9.32;2.15;;;;;;;9.66;70.98;97226.13;5062392;28;20040;-68
2021/10/21 00:48:43;;;;;;;11.85;2.05;;;;;;;9.77;69.84;97229.44;5064501;28;20060;-68
2021/10/21 00:51:12;;;;;;;14.45;2.15;;;;;;;9.71;69.34;97244.84;5065631;28;20134;-68
2021/10/21 00:53:39;;;;;;;8.80;2.10;;;;;;;9.78;67.99;97242.56;5055921;28;20486;-68
2021/10/21 00:56:07;;;;;;;12.75;2.42;;;;;;;9.78;66.97;97237.19;5060584;28;20066;-68
2021/10/21 00:58:34;;;;;;;11.32;1.98;;;;;;;9.87;67.28;97245.34;5061831;28;20037;-68
2021/10/21 01:01:00;;;;;;;11.68;1.85;;;;;;;10.01;66.82;97248.03;5065965;28;20028;-68
2021/10/21 01:03:26;;;;;;;12.02;1.50;;;;;;;9.93;66.02;97243.34;5066710;28;20114;-68
2021/10/21 01:05:52;;;;;;;8.63;1.60;;;;;;;9.99;66.67;97254.81;5067418;28;20389;-68
2021/10/21 01:08:18;;;;;;;13.07;1.75;;;;;;;10.04;65.81;97246.63;5065628;28;20040;-68
2021/10/21 01:10:44;;;;;;;8.35;1.40;;;;;;;10.00;66.57;97257.19;5071040;28;20032;-68
2021/10/21 01:13:10;;;;;;;16.33;1.63;;;;;;;10.09;67.10;97260.75;5069682;28;20099;-68
2021/10/21 01:15:36;;;;;;;13.30;1.48;;;;;;;9.83;66.59;97252.44;5069130;28;20036;-68
2021/10/21 01:18:02;;;;;;;11.80;1.67;;;;;;;9.89;66.97;97245.84;5060976;28;20032;-68
2021/10/21 01:20:28;;;;;;;16.48;2.28;;;;;;;9.93;66.30;97257.59;5062027;28;20021;-68
2021/10/21 01:22:54;;;;;;;10.32;1.48;;;;;;;9.81;68.04;97254.63;5065167;28;20044;-68
2021/10/21 01:25:20;;;;;;;14.80;1.60;;;;;;;9.64;68.19;97253.28;5056975;28;20124;-68
2021/10/21 01:27:48;;;;;;;15.52;2.13;;;;;;;9.71;67.84;97263.66;5059001;28;20032;-69
2021/10/21 01:30:18;;;;;;;16.15;1.83;;;;;;;9.91;68.32;97267.84;5055868;28;20036;-68
2021/10/21 01:32:43;;;;;;;8.35;1.13;;;;;;;9.51;70.13;97262.13;5068009;28;20033;-68
2021/10/21 01:35:09;;;;;;;14.38;1.35;;;;;;;9.63;70.05;97265.13;5048925;28;20059;-68
2021/10/21 01:37:34;;;;;;;9.65;1.42;;;;;;;9.67;69.26;97254.59;5063583;28;20139;-67
2021/10/21 01:40:00;;;;;;;13.70;1.80;;;;;;;9.32;70.89;97252.25;5053942;28;20059;-68
2021/10/21 01:42:28;;;;;;;13.32;2.00;;;;;;;9.28;72.16;97247.78;5062153;28;20036;-68
2021/10/21 01:44:54;;;;;;;15.38;1.60;;;;;;;9.25;72.52;97253.75;5071386;28;20592;-68
2021/10/21 01:47:19;;;;;;;11.63;1.60;;;;;;;9.35;71.10;97258.94;5052512;28;20033;-70
2021/10/21 01:49:45;;;;;;;7.90;1.35;;;;;;;9.36;71.12;97247.88;5059980;28;20481;-68
2021/10/21 01:52:12;;;;;;;10.27;1.60;;;;;;;9.48;70.42;97260.84;5059823;28;20048;-69
2021/10/21 01:54:37;;;;;;;7.65;1.50;;;;;;;9.37;70.80;97267.50;5064237;28;20035;-68
2021/10/21 01:57:03;;;;;;;10.80;1.52;;;;;;;9.23;72.25;97257.53;5061156;28;20033;-68
2021/10/21 01:59:29;;;;;;;13.15;1.52;;;;;;;9.34;71.63;97255.44;5066670;28;20044;-69
2021/10/21 02:01:54;;;;;;;11.68;1.60;;;;;;;9.26;71.86;97274.13;5053567;28;20109;-68
2021/10/21 02:04:20;;;;;;;10.18;1.40;;;;;;;9.39;71.36;97268.00;5071154;28;20119;-68
2021/10/21 02:06:46;;;;;;;7.72;1.27;;;;;;;9.53;71.24;97273.38;5038494;28;20460;-68
2021/10/21 02:09:12;;;;;;;15.15;1.48;;;;;;;9.44;72.13;97275.97;5061833;28;20040;-68
2021/10/21 02:11:37;;;;;;;24.00;2.25;;;;;;;9.48;71.84;97294.97;5049070;28;20032;-68
2021/10/21 02:14:03;;;;;;;12.18;2.30;;;;;;;9.45;72.74;97290.19;5058309;28;20127;-68
2021/10/21 02:16:29;;;;;;;15.75;2.28;;;;;;;9.48;72.77;97293.09;5045358;28;20112;-68
2021/10/21 02:18:54;;;;;;;10.85;1.73;;;;;;;9.28;74.93;97282.69;5050262;28;20111;-68
2021/10/21 02:21:20;;;;;;;11.85;1.95;;;;;;;9.38;74.76;97274.47;5051016;28;20389;-68
2021/10/21 02:23:46;;;;;;;10.25;1.80;;;;;;;9.29;76.80;97278.91;5039055;28;20040;-68
2021/10/21 02:26:12;;;;;;;13.80;2.03;;;;;;;9.43;76.35;97273.56;5050545;28;20040;-69
2021/10/21 02:28:37;;;;;;;11.30;1.95;;;;;;;9.47;75.86;97279.94;5069656;28;20039;-68
2021/10/21 02:31:03;;;;;;;7.93;1.65;;;;;;;9.19;77.52;97287.94;5051249;28;20037;-69
2021/10/21 02:33:29;;;;;;;10.75;2.28;;;;;;;9.34;76.92;97295.72;5054591;28;20041;-68
2021/10/21 02:35:54;;;;;;;6.13;1.58;;;;;;;9.41;75.96;97295.38;5047467;28;20033;-68
2021/10/21 02:38:20;;;;;;;4.38;1.50;;;;;;;9.51;76.61;97295.19;5045722;28;20415;-68
2021/10/21 02:40:45;;;;;;;7.68;1.10;;;;;;;9.70;75.70;97291.63;5052491;28;20036;-68
2021/10/21 02:43:12;;;;;;;3.65;1.10;;;;;;;9.67;76.13;97298.38;5055269;28;20047;-67
2021/10/21 02:45:40;;;;;;;6.05;1.23;;;;;;;9.76;76.28;97300.41;5069143;28;20025;-68
2021/10/21 02:48:06;;;;;;;4.78;0.98;;;;;;;9.64;77.30;97309.72;5052929;28;20036;-68
2021/10/21 02:50:31;;;;;;;2.70;0.90;;;;;;;9.82;76.63;97310.75;5052286;28;20101;-67
2021/10/21 02:52:57;;;;;;;5.43;0.80;;;;;;;9.84;77.01;97310.47;5061819;28;20040;-68
2021/10/21 02:55:23;;;;;;;3.08;1.08;;;;;;;9.67;78.69;97316.41;5058583;28;20486;-68
2021/10/21 02:57:48;;;;;;;2.35;1.00;;;;;;;9.53;79.31;97324.44;5057851;28;20063;-68
2021/10/21 03:00:14;;;;;;;3.65;1.10;;;;;;;9.49;80.20;97326.13;5056701;28;20367;-67
2021/10/21 03:02:39;;;;;;;3.10;1.10;;;;;;;9.52;80.35;97320.97;5054344;28;20062;-69
2021/10/21 03:05:06;;;;;;;2.13;0.95;;;;;;;9.46;80.29;97314.09;5064889;28;20032;-68
2021/10/21 03:07:31;;;;;;;4.45;1.10;;;;;;;9.58;79.59;97327.03;5052462;28;20020;-68
2021/10/21 03:09:58;;;;;;;7.95;1.10;;;;;;;9.42;79.07;97317.63;5046554;28;20025;-68
2021/10/21 03:12:23;;;;;;;7.65;0.98;;;;;;;9.52;78.47;97318.28;5054449;28;20052;-68
2021/10/21 03:14:49;;;;;;;17.83;1.73;;;;;;;9.36;78.62;97330.38;5049741;28;20036;-67
2021/10/21 03:17:15;;;;;;;9.82;1.10;;;;;;;9.57;78.86;97338.88;5064514;28;20045;-68
2021/10/21 03:19:40;;;;;;;7.82;1.40;;;;;;;9.64;79.09;97341.97;5055942;28;20036;-68
2021/10/21 03:22:06;;;;;;;6.38;1.02;;;;;;;9.66;79.35;97345.16;5068079;28;20032;-70
2021/10/21 03:24:32;;;;;;;14.32;1.27;;;;;;;9.43;80.28;97338.84;5047502;28;20037;-69
2021/10/21 03:26:59;;;;;;;7.50;0.80;;;;;;;9.42;80.41;97356.06;5055518;28;20029;-69
2021/10/21 03:29:25;;;;;;;6.88;1.10;;;;;;;9.46;79.62;97367.81;5057295;28;20371;-69
2021/10/21 03:31:51;;;;;;;9.55;1.17;;;;;;;9.35;79.67;97382.50;5065627;28;20024;-68
2021/10/21 03:34:17;;;;;;;14.23;1.23;;;;;;;9.35;79.95;97385.19;5057827;28;20083;-69
2021/10/21 03:36:43;;;;;;;6.65;0.98;;;;;;;9.31;79.25;97384.19;5060165;28;20485;-69
2021/10/21 03:39:08;;;;;;;12.02;1.60;;;;;;;9.34;78.99;97391.66;5058724;28;20546;-68
2021/10/21 03:41:35;;;;;;;9.40;1.23;;;;;;;9.05;79.24;97390.72;5058708;28;20033;-68
2021/10/21 03:44:01;;;;;;;9.43;1.17;;;;;;;9.06;79.35;97408.44;5049264;28;20025;-69
2021/10/21 03:46:26;;;;;;;9.57;0.80;;;;;;;8.92;78.83;97403.00;5068487;28;20477;-68
2021/10/21 03:48:52;;;;;;;8.13;1.23;;;;;;;9.00;78.33;97430.28;5058150;28;20036;-68
2021/10/21 03:51:17;;;;;;;2.15;0.47;;;;;;;8.80;78.05;97426.75;5068266;28;20512;-69
2021/10/21 03:53:43;;;;;;;7.32;0.70;;;;;;;8.86;77.79;97457.03;5062333;28;20036;-69
2021/10/21 03:56:09;;;;;;;10.57;0.60;;;;;;;8.99;76.28;97472.44;5059689;28;20106;-69
2021/10/21 03:58:36;;;;;;;9.68;0.77;;;;;;;9.04;76.35;97514.53;5052731;28;20059;-68
2021/10/21 04:01:03;;;;;;;3.72;0.38;;;;;;;8.91;75.68;97530.25;5069315;28;20032;-67
2021/10/21 04:03:28;;;;;;;3.88;0.90;;;;;;;8.85;75.41;97539.44;5068994;28;20033;-68
2021/10/21 04:05:54;;;;;;;3.95;0.60;;;;;;;9.17;74.32;97539.88;5052807;28;20032;-69
2021/10/21 04:08:21;;;;;;;5.07;0.95;;;;;;;9.08;73.92;97596.13;5056465;28;20139;-68
2021/10/21 04:10:48;;;;;;;5.55;0.40;;;;;;;8.30;77.19;97638.91;5071143;28;20028;-71
2021/10/21 04:13:14;;;;;;;3.40;0.38;;;;;;;7.21;79.00;97660.84;5056078;28;20444;-75
2021/10/21 04:15:40;;;;;;;5.47;0.10;;;;;;;6.91;80.65;97677.75;5071182;28;20079;-74
2021/10/21 04:18:06;;;;;;;1.65;0.10;;;;;;;6.39;82.09;97686.59;5054266;28;20032;-76
2021/10/21 04:20:31;;;;;;;0.00;0.00;;;;;;;6.36;82.30;97705.03;5055153;28;20059;-78
2021/10/21 04:22:57;;;;;;;0.85;0.10;;;;;;;5.98;83.26;97721.19;5062566;28;20420;-77
2021/10/21 04:25:22;;;;;;;27.50;1.85;;;;;;;6.15;83.31;97716.47;5051281;28;20037;-77
2021/10/21 04:27:48;;;;;;;0.40;0.20;;;;;;;5.90;83.99;97714.50;5075752;28;20377;-77
2021/10/21 04:30:13;;;;;;;11.10;0.50;;;;;;;6.02;83.47;97749.03;5059259;28;20480;-77
2021/10/21 04:32:40;;;;;;;0.43;0.15;;;;;;;5.64;82.32;97761.66;5059863;28;20079;-74
2021/10/21 04:35:06;;;;;;;2.38;0.20;;;;;;;5.67;83.05;97761.97;5067418;28;20040;-74
2021/10/21 04:37:32;;;;;;;6.03;0.70;;;;;;;5.66;83.83;97786.25;5063727;28;20028;-72
2021/10/21 04:39:57;;;;;;;43.38;1.50;;;;;;;5.40;84.77;97789.59;5058982;28;20566;-72
2021/10/21 04:42:23;;;;;;;76.63;2.78;;;;;;;5.63;84.70;97797.44;5062684;28;20024;-72
2021/10/21 04:44:49;;;;;;;18.20;0.73;;;;;;;5.74;84.00;97809.00;5065791;28;20512;-71
2021/10/21 04:47:14;;;;;;;5.20;0.30;;;;;;;5.73;83.43;97826.88;5058345;28;20724;-70
2021/10/21 04:49:40;;;;;;;0.50;0.10;;;;;;;5.61;82.93;97829.78;5061039;28;20036;-71
2021/10/21 04:52:05;;;;;;;0.13;0.10;;;;;;;5.61;83.41;97831.63;5078551;28;20049;-71
2021/10/21 04:54:32;;;;;;;0.08;0.05;;;;;;;5.48;83.73;97846.22;5055746;28;20362;-70
2021/10/21 04:56:57;;;;;;;4.78;0.10;;;;;;;5.36;83.69;97859.75;5066597;28;20082;-70
2021/10/21 04:59:24;;;;;;;0.47;0.00;;;;;;;5.56;83.54;97861.78;5059125;28;20056;-71
2021/10/21 05:01:49;;;;;;;8.43;0.40;;;;;;;5.25;82.11;97874.84;5054258;28;20430;-71
2021/10/21 05:04:15;;;;;;;1.20;0.20;;;;;;;5.41;82.83;97886.47;5062499;28;20485;-71
2021/10/21 05:06:40;;;;;;;1.85;0.28;;;;;;;5.09;82.83;97884.59;5063452;28;20062;-72
2021/10/21 05:09:06;;;;;;;15.05;0.82;;;;;;;4.95;83.38;97922.34;5067291;28;20698;-72
2021/10/21 05:11:32;;;;;;;7.07;0.50;;;;;;;5.09;82.90;97932.63;5071639;28;20040;-71
2021/10/21 05:13:57;;;;;;;2.47;0.45;;;;;;;5.22;82.58;97947.44;5055752;28;20525;-71
2021/10/21 05:16:23;;;;;;;1.65;0.40;;;;;;;5.55;82.41;97949.09;5067984;28;20033;-71
2021/10/21 05:18:48;;;;;;;0.20;0.20;;;;;;;5.42;82.24;97944.97;5065382;28;20048;-72
2021/10/21 05:21:14;;;;;;;1.65;0.47;;;;;;;5.23;82.43;97957.03;5064998;28;20520;-71
2021/10/21 05:23:39;;;;;;;2.03;0.35;;;;;;;5.40;81.78;97963.13;5052082;28;20044;-71
2021/10/21 05:26:05;;;;;;;6.15;0.57;;;;;;;5.44;82.44;97970.63;5054152;28;20051;-71
2021/10/21 05:28:30;;;;;;;5.65;0.65;;;;;;;5.48;81.26;97975.19;5056415;28;20044;-71
2021/10/21 05:30:56;;;;;;;5.97;0.73;;;;;;;5.50;80.58;97989.09;5046944;28;20559;-71
2021/10/21 05:33:25;;;;;;;4.72;0.70;;;;;;;5.37;80.72;98001.00;5056836;28;20067;-71
2021/10/21 05:35:50;;;;;;;5.75;0.70;;;;;;;5.46;80.76;98017.38;5058264;28;20029;-71
2021/10/21 05:38:16;;;;;;;6.20;0.77;;;;;;;5.20;81.72;98008.25;5058471;28;20044;-70
2021/10/21 05:40:41;;;;;;;5.35;0.98;;;;;;;5.40;80.15;98021.84;5064270;28;20043;-69
2021/10/21 05:43:07;;;;;;;9.48;0.90;;;;;;;5.38;79.55;98031.16;5060941;28;20044;-70
2021/10/21 05:45:33;;;;;;;4.60;0.80;;;;;;;5.25;79.79;98040.34;5067977;28;20405;-71
2021/10/21 05:47:58;;;;;;;6.88;1.08;;;;;;;5.08;79.80;98046.56;5048519;28;20825;-68
2021/10/21 05:50:24;;;;;;;9.73;0.75;;;;;;;5.00;80.72;98048.88;5041663;28;20508;-68
2021/10/21 05:52:50;;;;;;;5.93;0.63;;;;;;;4.93;79.84;98055.19;5031358;28;20036;-67
2021/10/21 05:55:16;;;;;;;5.03;0.80;;;;;;;4.80;79.39;98064.34;5045144;28;20139;-70
2021/10/21 05:57:42;;;;;;;4.13;0.65;;;;;;;4.66;78.75;98087.91;5051574;28;20127;-71
2021/10/21 06:00:09;;;;;;;4.00;0.50;;;;;;;4.76;77.86;98091.78;5056533;28;20405;-71
2021/10/21 06:02:36;;;;;;;4.40;0.47;;;;;;;4.76;77.90;98099.78;5048443;28;20047;-71
2021/10/21 06:05:03;;;;;;;2.58;0.30;;;;;;;4.70;76.68;98112.22;5065159;28;20127;-68
2021/10/21 06:07:29;;;;;;;9.75;0.70;;;;;;;4.76;76.53;98119.25;5062545;28;20036;-68
2021/10/21 06:09:57;;;;;;;5.80;0.50;;;;;;;4.67;78.02;98136.72;5062480;28;20039;-69
2021/10/21 06:12:24;;;;;;;4.25;0.75;;;;;;;4.51;77.65;98136.47;5052795;28;20029;-69
2021/10/21 06:14:51;;;;;;;2.50;0.40;;;;;;;4.58;76.34;98143.50;5048877;28;20040;-69
2021/10/21 06:17:18;;;;;;;2.42;0.30;;;;;;;4.34;77.63;98151.66;5053267;28;20096;-70
2021/10/21 06:19:44;;;;;;;5.03;0.60;;;;;;;4.62;76.99;98163.31;5053731;28;20401;-70
2021/10/21 06:22:12;;;;;;;2.90;0.60;;;;;;;4.33;76.76;98172.16;5054528;28;20489;-70
2021/10/21 06:24:38;;;;;;;1.27;0.38;;;;;;;4.43;75.89;98178.72;5041185;28;20056;-69
2021/10/21 06:27:04;;;;;;;5.05;0.60;;;;;;;4.44;76.68;98183.81;5038353;28;20043;-68
2021/10/21 06:29:29;;;;;;;6.55;0.60;;;;;;;4.44;76.05;98199.81;5051351;28;20114;-68
2021/10/21 06:31:55;;;;;;;5.28;0.50;;;;;;;4.57;75.79;98198.69;5051228;28;20474;-69
2021/10/21 06:34:24;;;;;;;1.98;0.47;;;;;;;4.28;75.79;98211.25;5054123;28;20044;-67
2021/10/21 06:36:51;;;;;;;4.22;0.65;;;;;;;4.41;75.93;98218.94;5055468;28;20131;-68
2021/10/21 06:39:17;;;;;;;2.33;0.50;;;;;;;4.29;74.91;98213.66;5058776;28;20082;-68
2021/10/21 06:41:43;;;;;;;8.27;0.90;;;;;;;4.71;75.06;98231.19;5051373;28;20020;-69
2021/10/21 06:44:08;;;;;;;1.20;0.30;;;;;;;4.51;74.19;98239.66;5061560;28;20363;-68
2021/10/21 06:46:34;;;;;;;5.78;0.65;;;;;;;4.62;74.39;98254.78;5058513;28;20037;-68
2021/10/21 06:49:00;;;;;;;6.07;1.48;;;;;;;4.43;73.41;98242.72;5052792;28;20503;-67
2021/10/21 06:51:26;;;;;;;1.17;0.28;;;;;;;4.31;74.47;98259.53;5059613;28;20440;-67
2021/10/21 06:53:52;;;;;;;16.38;6.40;;;;;;;4.53;74.10;98272.22;5053657;28;20048;-68
2021/10/21 06:56:18;;;;;;;5.45;0.50;;;;;;;4.39;73.77;98264.50;5058731;28;20126;-67
2021/10/21 06:58:43;;;;;;;4.90;0.65;;;;;;;4.51;73.58;98272.44;5050027;28;20060;-67
2021/10/21 07:01:09;;;;;;;6.75;0.52;;;;;;;4.44;73.42;98289.66;5055763;28;20105;-67
2021/10/21 07:03:34;;;;;;;3.53;0.40;;;;;;;4.57;72.85;98299.22;5055048;28;20032;-67
2021/10/21 07:06:00;;;;;;;9.23;0.77;;;;;;;4.60;72.97;98307.56;5061121;28;20033;-70
2021/10/21 07:08:28;;;;;;;7.88;0.52;;;;;;;4.62;72.32;98313.47;5063474;28;20481;-68
2021/10/21 07:10:56;;;;;;;3.30;0.57;;;;;;;4.66;72.74;98319.94;5059949;28;20024;-68
2021/10/21 07:13:22;;;;;;;7.32;0.65;;;;;;;4.58;71.93;98330.97;5061460;28;20047;-69
2021/10/21 07:15:48;;;;;;;4.90;0.70;;;;;;;4.56;72.19;98346.41;5053592;28;20025;-68
2021/10/21 07:18:13;;;;;;;4.13;0.60;;;;;;;4.57;71.80;98365.88;5060300;28;20526;-68
2021/10/21 07:20:39;;;;;;;4.78;0.60;;;;;;;4.71;70.99;98369.09;5039222;28;20040;-68
2021/10/21 07:23:05;;;;;;;5.68;0.73;;;;;;;4.66;70.94;98378.59;5064637;28;20064;-68
2021/10/21 07:25:31;;;;;;;3.88;0.55;;;;;;;4.86;71.02;98393.38;5048910;28;20036;-68
2021/10/21 07:27:59;;;;;;;6.57;0.68;;;;;;;4.84;70.68;98406.16;5064474;28;20020;-69
2021/10/21 07:30:28;;;;;;;2.00;0.70;;;;;;;4.89;71.39;98419.59;5040814;28;20044;-69
2021/10/21 07:32:55;;;;;;;3.17;0.68;;;;;;;5.03;71.74;98430.75;5053900;28;20040;-69
2021/10/21 07:35:21;;;;;;;5.88;1.63;;;;;;;4.92;71.25;98434.28;5065534;28;20041;-69
2021/10/21 07:37:48;;;;;;;5.78;0.77;;;;;;;4.94;70.56;98449.03;5054736;28;20039;-69
2021/10/21 07:40:14;;;;;;;7.70;2.53;;;;;;;5.00;70.62;98449.91;5059002;28;20116;-69
2021/10/21 07:42:40;;;;;;;27.15;16.55;;;;;;;5.26;70.80;98461.06;5065997;28;20029;-69
2021/10/21 07:45:08;;;;;;;4.90;0.70;;;;;;;5.06;69.98;98459.63;5065484;28;20055;-69
2021/10/21 07:47:34;;;;;;;13.57;5.13;;;;;;;5.22;69.22;98468.75;5060993;28;20051;-69
2021/10/21 07:50:01;;;;;;;4.32;1.00;;;;;;;5.08;69.59;98486.91;5057699;28;20056;-69
2021/10/21 07:52:27;;;;;;;14.80;5.82;;;;;;;5.50;68.98;98495.69;5066910;28;20032;-69
2021/10/21 07:54:53;;;;;;;4.05;0.68;;;;;;;5.49;68.45;98497.53;5070897;28;20086;-69
2021/10/21 07:57:20;;;;;;;4.85;1.33;;;;;;;5.54;68.72;98512.88;5061921;28;20024;-69
2021/10/21 07:59:47;;;;;;;5.53;0.80;;;;;;;5.53;68.45;98508.56;5063328;28;20032;-69
2021/10/21 08:02:13;;;;;;;5.20;0.57;;;;;;;5.54;68.07;98515.53;5067386;28;20079;-68
2021/10/21 08:04:39;;;;;;;8.90;4.25;;;;;;;5.78;67.53;98521.53;5052768;28;20106;-68
2021/10/21 08:07:05;;;;;;;4.88;1.20;;;;;;;5.69;68.29;98531.00;5067492;28;20020;-68
2021/10/21 08:09:31;;;;;;;3.55;0.70;;;;;;;5.84;68.16;98543.84;5067312;28;20103;-68
2021/10/21 08:12:02;;;;;;;33.22;18.23;;;;;;;6.10;67.44;98553.09;5069925;28;20115;-68
2021/10/21 08:14:29;;;;;;;6.45;2.72;;;;;;;5.97;67.23;98561.41;5068428;28;20040;-68
2021/10/21 08:16:57;;;;;;;18.58;9.98;;;;;;;5.99;66.95;98559.31;5066143;28;20033;-67
2021/10/21 08:19:22;;;;;;;6.10;0.75;;;;;;;6.06;67.27;98576.03;5065084;28;20029;-68
2021/10/21 08:21:48;;;;;;;11.32;1.73;;;;;;;6.26;67.83;98575.56;5062226;28;20136;-68
2021/10/21 08:24:15;;;;;;;25.90;16.08;;;;;;;6.33;66.86;98579.94;5046125;28;20037;-68
2021/10/21 08:26:41;;;;;;;8.00;0.70;;;;;;;6.32;66.11;98589.84;5063162;28;20479;-68
2021/10/21 08:29:07;;;;;;;7.38;1.10;;;;;;;6.48;66.20;98600.78;5079958;28;20370;-68
2021/10/21 08:31:34;;;;;;;5.82;1.27;;;;;;;6.59;65.74;98608.72;5052011;28;20102;-68
2021/10/21 08:34:00;;;;;;;17.67;2.05;;;;;;;6.69;66.00;98626.78;5070613;28;20033;-68
2021/10/21 08:36:25;;;;;;;10.73;1.23;;;;;;;6.74;64.79;98629.53;5044597;28;20056;-68
2021/10/21 08:38:52;;;;;;;11.55;1.48;;;;;;;6.82;65.18;98635.53;5059348;28;20060;-68
2021/10/21 08:41:23;;;;;;;8.85;1.15;;;;;;;7.08;64.53;98652.78;5062930;28;20025;-68
2021/10/21 08:43:49;;;;;;;11.80;1.40;;;;;;;6.86;63.38;98645.50;5059445;28;20033;-68
2021/10/21 08:46:21;;;;;;;13.80;2.00;;;;;;;7.00;63.09;98656.69;5071455;28;20500;-68
2021/10/21 08:48:59;;;;;;;29.77;10.60;;;;;;;7.20;62.11;98670.63;5064128;28;20025;-69
2021/10/21 08:51:30;;;;;;;19.83;3.60;;;;;;;7.21;62.03;98680.28;5052682;28;20071;-69
2021/10/21 08:53:57;;;;;;;15.77;3.28;;;;;;;7.30;62.83;98687.63;5046429;28;20035;-69
2021/10/21 08:56:26;;;;;;;18.50;6.30;;;;;;;7.28;62.35;98702.34;5072955;28;20428;-69
2021/10/21 08:58:55;;;;;;;14.77;2.50;;;;;;;7.49;62.63;98703.41;5049230;28;20714;-69
2021/10/21 09:02:04;;;;;;;11.57;2.03;;;;;;;7.38;61.75;98713.19;5048910;28;20038;-69
2021/10/21 09:09:26;;;;;;;15.70;2.60;;;;;;;7.64;61.40;98740.34;5064506;28;20045;-71
2021/10/21 09:12:04;;;;;;;21.88;2.63;;;;;;;7.60;59.88;98737.31;5060974;28;20107;-68
2021/10/21 09:14:34;;;;;;;9.38;1.90;;;;;;;7.50;60.71;98736.38;5055877;28;20045;-70
2021/10/21 09:17:05;;;;;;;16.55;5.40;;;;;;;7.64;59.83;98752.91;5067981;28;20036;-69
2021/10/21 09:19:31;;;;;;;15.95;3.13;;;;;;;7.70;60.58;98755.41;5055122;28;20024;-69
2021/10/21 09:21:58;;;;;;;14.48;2.10;;;;;;;7.67;59.91;98753.22;5062603;28;20393;-69
2021/10/21 09:24:51;;;;;;;14.02;2.38;;;;;;;7.67;59.18;98757.75;5060526;28;20526;-69
2021/10/21 09:27:19;;;;;;;14.93;2.53;;;;;;;7.81;58.67;98774.31;5049730;28;20064;-69
2021/10/21 09:29:50;;;;;;;11.75;3.28;;;;;;;7.89;59.29;98772.00;5062471;28;20100;-69
2021/10/21 09:32:21;;;;;;;35.20;19.20;;;;;;;7.88;58.19;98788.34;5064649;28;20051;-70
2021/10/21 09:35:02;;;;;;;15.85;2.50;;;;;;;7.82;57.64;98795.50;5056764;28;20037;-69
2021/10/21 09:37:44;;;;;;;17.70;2.70;;;;;;;7.93;57.72;98812.53;5051296;28;20021;-69
2021/10/21 09:40:15;;;;;;;12.57;2.70;;;;;;;8.04;58.41;98816.97;5047455;28;20374;-69
2021/10/21 09:42:43;;;;;;;13.88;1.83;;;;;;;7.96;57.85;98820.09;5059023;28;20493;-69
2021/10/21 09:45:16;;;;;;;16.42;1.80;;;;;;;8.07;56.44;98831.78;5067623;28;20064;-69
2021/10/21 09:47:49;;;;;;;15.50;1.93;;;;;;;8.05;57.56;98828.53;5056472;28;20052;-69
2021/10/21 09:50:22;;;;;;;16.92;3.20;;;;;;;7.85;57.36;98829.06;5055581;28;20457;-71
2021/10/21 09:53:23;;;;;;;11.90;1.90;;;;;;;8.40;57.04;98851.50;5058271;28;20052;-67
2021/10/21 09:55:51;;;;;;;13.23;2.03;;;;;;;8.45;56.83;98854.25;5047954;28;20048;-67
2021/10/21 09:58:47;;;;;;;10.50;2.28;;;;;;;8.41;56.75;98866.53;5062015;28;20036;-70
2021/10/21 10:01:15;;;;;;;17.23;2.13;;;;;;;8.38;56.36;98871.56;5061304;28;20045;-69
2021/10/21 10:03:44;;;;;;;15.45;2.20;;;;;;;8.53;56.49;98882.53;5064949;28;20036;-70
2021/10/21 10:06:11;;;;;;;24.20;6.60;;;;;;;8.58;55.80;98885.28;5065963;28;20033;-70
2021/10/21 10:08:37;;;;;;;15.73;2.63;;;;;;;8.68;55.67;98892.66;5055826;28;20060;-70
2021/10/21 10:11:19;;;;;;;26.27;4.32;;;;;;;8.64;54.83;98894.22;5052800;28;20068;-70
2021/10/21 10:13:47;;;;;;;14.27;2.13;;;;;;;8.47;54.49;98897.75;5063259;28;20060;-69
2021/10/21 10:16:13;;;;;;;7.57;1.48;;;;;;;8.47;53.96;98900.41;5063784;28;20036;-69
2021/10/21 10:18:44;;;;;;;17.92;2.20;;;;;;;8.74;55.11;98920.34;5060628;28;20068;-68
2021/10/21 10:21:11;;;;;;;21.02;3.05;;;;;;;8.79;54.63;98923.91;5061361;28;20029;-68
2021/10/21 10:23:51;;;;;;;9.85;1.88;;;;;;;8.86;52.87;98926.41;5068769;28;20039;-69
2021/10/21 10:26:38;;;;;;;11.90;2.00;;;;;;;9.11;52.35;98935.00;5060601;28;20056;-69
2021/10/21 10:29:04;;;;;;;13.68;2.17;;;;;;;9.00;52.69;98944.84;5059976;28;20375;-68
2021/10/21 10:32:00;;;;;;;15.65;2.80;;;;;;;9.01;53.11;98951.81;5055856;28;20033;-68
2021/10/21 10:34:34;;;;;;;11.57;3.72;;;;;;;9.34;52.79;98950.81;5059541;28;20040;-69
2021/10/21 10:37:32;;;;;;;13.98;2.55;;;;;;;9.16;50.22;98946.63;5066821;28;20478;-69
2021/10/21 10:40:00;;;;;;;11.45;1.73;;;;;;;9.15;49.63;98962.97;5051779;28;20079;-69
2021/10/21 10:42:29;;;;;;;11.82;2.00;;;;;;;9.11;49.41;98969.91;5053737;28;20478;-69
2021/10/21 10:44:55;;;;;;;8.32;1.83;;;;;;;9.06;51.45;98976.06;5063646;28;20033;-69
2021/10/21 10:47:42;;;;;;;16.60;2.63;;;;;;;9.14;49.19;98974.78;5062869;28;20081;-68
2021/10/21 10:50:33;;;;;;;13.55;2.30;;;;;;;9.30;50.61;98979.25;5060670;28;20074;-69
2021/10/21 10:53:00;;;;;;;10.60;2.30;;;;;;;9.16;49.98;98992.28;5053385;28;20507;-69
2021/10/21 10:55:50;;;;;;;14.38;2.38;;;;;;;9.04;50.23;98991.63;5062327;28;20407;-68
2021/10/21 10:58:26;;;;;;;14.77;2.10;;;;;;;9.22;49.61;99010.09;5056364;28;20048;-68
2021/10/21 11:00:58;;;;;;;15.57;2.35;;;;;;;9.54;50.45;99013.09;5062137;28;20040;-68
2021/10/21 11:03:32;;;;;;;12.40;2.25;;;;;;;9.50;49.41;99010.91;5064935;28;20060;-68
2021/10/21 11:06:03;;;;;;;14.53;2.10;;;;;;;9.45;49.13;99018.94;5056278;28;20032;-68
2021/10/21 11:09:02;;;;;;;18.75;2.58;;;;;;;9.58;49.31;99020.38;5060686;28;20364;-68
2021/10/21 11:11:40;;;;;;;11.38;2.03;;;;;;;9.64;49.51;99029.34;5047674;28;20029;-68
2021/10/21 11:14:44;;;;;;;12.05;2.20;;;;;;;9.42;49.38;99038.25;5054016;28;20497;-69
2021/10/21 11:17:14;;;;;;;10.63;2.03;;;;;;;9.71;49.98;99059.50;5045393;28;20051;-68
2021/10/21 11:19:43;;;;;;;14.07;2.33;;;;;;;9.60;48.74;99066.66;5060410;28;20100;-69
2021/10/21 11:22:21;;;;;;;15.20;3.40;;;;;;;9.75;48.79;99057.16;5050083;28;20478;-68
2021/10/21 11:24:51;;;;;;;11.65;2.33;;;;;;;9.85;49.95;99065.31;5058219;28;20131;-69
2021/10/21 11:27:20;;;;;;;17.48;2.60;;;;;;;9.80;47.69;99055.31;5059806;28;20066;-68
2021/10/21 11:29:49;;;;;;;27.15;2.80;;;;;;;9.92;49.67;99070.47;5055411;28;20477;-69
2021/10/21 11:32:16;;;;;;;12.57;2.03;;;;;;;10.06;49.81;99078.94;5060775;28;20032;-68
2021/10/21 11:34:47;;;;;;;10.20;2.40;;;;;;;9.88;48.08;99074.75;5059636;28;20060;-69
2021/10/21 11:37:13;;;;;;;13.85;2.17;;;;;;;10.06;49.68;99085.13;5065897;28;20021;-68
2021/10/21 11:39:40;;;;;;;9.65;1.85;;;;;;;10.27;49.01;99090.69;5055493;28;20398;-68
2021/10/21 11:42:08;;;;;;;13.80;2.20;;;;;;;10.17;49.63;99085.22;5047290;28;20320;-68
2021/10/21 11:44:38;;;;;;;13.13;1.80;;;;;;;10.27;49.40;99093.38;5066096;28;20032;-68